createdAt,value
2023-01-24T00:03:00.128Z,101873.13
2023-01-24T00:06:02.917Z,101877.25
2023-01-24T00:09:05.873Z,101879.88
2023-01-24T00:12:08.497Z,101884.34
2023-01-24T00:15:11.779Z,101877.25
2023-01-24T00:18:14.394Z,101882.53
2023-01-24T00:21:20.347Z,101880.56
2023-01-24T00:24:23.035Z,101880.00
2023-01-24T00:27:25.686Z,101885.47
2023-01-24T00:30:28.546Z,101882.03
2023-01-24T00:33:33.564Z,101886.78
2023-01-24T00:36:36.095Z,101889.56
2023-01-24T00:39:39.132Z,101895.81
2023-01-24T00:42:42.100Z,101895.50
2023-01-24T00:45:46.387Z,101895.00
2023-01-24T00:48:48.811Z,101887.09
2023-01-24T00:51:51.792Z,101888.78
2023-01-24T00:54:54.676Z,101879.44
2023-01-24T00:57:57.823Z,101890.81
2023-01-24T01:01:03.358Z,101886.38
2023-01-24T01:04:06.504Z,101885.56
2023-01-24T01:07:09.184Z,101893.47
2023-01-24T01:10:12.943Z,101892.88
2023-01-24T01:13:15.525Z,101905.91
2023-01-24T01:16:20.318Z,101910.19
2023-01-24T01:19:22.999Z,101909.81
2023-01-24T01:22:26.116Z,101911.59
2023-01-24T01:25:28.976Z,101919.06
2023-01-24T01:28:32.147Z,101929.84
2023-01-24T01:31:36.292Z,101930.88
2023-01-24T01:34:39.027Z,101922.78
2023-01-24T01:37:41.766Z,101922.13
2023-01-24T01:40:45.673Z,101922.34
2023-01-24T01:44:07.059Z,101928.88
2023-01-24T01:47:24.475Z,101932.31
2023-01-24T01:50:38.061Z,101940.22
2023-01-24T01:54:03.762Z,101929.03
2023-01-24T01:57:10.904Z,101938.75
2023-01-24T02:00:18.462Z,101932.25
2023-01-24T02:03:41.577Z,101936.88
2023-01-24T02:06:57.608Z,101935.72
2023-01-24T02:10:01.173Z,101932.09
2023-01-24T02:13:04.099Z,101927.88
2023-01-24T02:16:07.894Z,101929.41
2023-01-24T02:19:21.114Z,101937.28
2023-01-24T02:25:43.195Z,101935.91
2023-01-24T02:28:54.988Z,101938.03
2023-01-24T02:32:03.496Z,101933.50
2023-01-24T02:35:06.625Z,101941.25
2023-01-24T02:38:26.366Z,101941.97
2023-01-24T02:41:44.001Z,101929.47
2023-01-24T02:45:17.914Z,101929.69
2023-01-24T02:48:20.736Z,101927.25
2023-01-24T02:51:42.126Z,101924.63
2023-01-24T02:54:44.563Z,101919.13
2023-01-24T02:58:06.394Z,101919.16
2023-01-24T03:01:11.328Z,101913.69
2023-01-24T03:04:14.513Z,101914.81
2023-01-24T03:07:17.384Z,101913.59
2023-01-24T03:10:27.666Z,101926.50
2023-01-24T03:13:49.548Z,101927.53
2023-01-24T03:17:10.690Z,101925.56
2023-01-24T03:20:32.725Z,101927.38
2023-01-24T03:23:54.261Z,101932.53
2023-01-24T03:27:15.352Z,101933.13
2023-01-24T03:30:37.188Z,101928.78
2023-01-24T03:33:58.768Z,101926.78
2023-01-24T03:37:02.582Z,101929.53
2023-01-24T03:40:13.603Z,101929.53
2023-01-24T03:43:16.752Z,101924.88
2023-01-24T03:46:19.777Z,101935.97
2023-01-24T03:49:50.814Z,101933.13
2023-01-24T03:52:54.055Z,101932.53
2023-01-24T03:56:02.523Z,101924.06
2023-01-24T03:59:11.154Z,101923.78
2023-01-24T04:02:16.304Z,101928.25
2023-01-24T04:05:19.029Z,101920.28
2023-01-24T04:08:22.413Z,101923.34
2023-01-24T04:11:26.049Z,101919.56
2023-01-24T04:14:34.473Z,101920.28
2023-01-24T04:17:45.984Z,101922.91
2023-01-24T04:20:52.026Z,101924.53
2023-01-24T04:23:54.975Z,101923.72
2023-01-24T04:26:58.655Z,101924.09
2023-01-24T04:30:08.420Z,101923.28
2023-01-24T04:33:13.195Z,101927.53
2023-01-24T04:36:16.508Z,101932.00
2023-01-24T04:39:23.185Z,101932.16
2023-01-24T04:42:52.164Z,101931.34
2023-01-24T04:46:00.057Z,101928.34
2023-01-24T04:49:15.828Z,101930.38
2023-01-24T04:52:22.889Z,101927.31
2023-01-24T04:55:33.737Z,101928.34
2023-01-24T04:58:36.828Z,101931.63
2023-01-24T05:01:40.709Z,101921.72
2023-01-24T05:04:52.544Z,101921.47
2023-01-24T05:07:55.903Z,101935.00
2023-01-24T05:11:05.269Z,101937.84
2023-01-24T05:14:12.384Z,101937.09
2023-01-24T05:17:15.365Z,101939.88
2023-01-24T05:20:18.774Z,101939.06
2023-01-24T05:23:21.867Z,101939.47
2023-01-24T05:26:27.162Z,101947.13
2023-01-24T05:29:30.193Z,101947.47
2023-01-24T05:32:35.807Z,101954.16
2023-01-24T05:35:41.934Z,101949.47
2023-01-24T05:38:45.691Z,101946.59
2023-01-24T05:41:48.597Z,101946.97
2023-01-24T05:44:53.054Z,101956.81
2023-01-24T05:47:56.564Z,101954.19
2023-01-24T05:51:05.714Z,101948.13
2023-01-24T05:54:08.653Z,101952.72
2023-01-24T05:57:29.748Z,101966.91
2023-01-24T06:00:47.418Z,101971.56
2023-01-24T06:04:06.872Z,101969.13
2023-01-24T06:07:10.521Z,101970.34
2023-01-24T06:10:14.795Z,101972.97
2023-01-24T06:13:27.994Z,101976.25
2023-01-24T06:16:30.894Z,101981.72
2023-01-24T06:19:33.950Z,101983.94
2023-01-24T06:22:51.967Z,101971.38
2023-01-24T06:25:56.864Z,101981.88
2023-01-24T06:28:59.645Z,101982.47
2023-01-24T06:32:27.541Z,101992.38
2023-01-24T06:35:37.460Z,101989.22
2023-01-24T06:38:40.908Z,101995.03
2023-01-24T06:41:44.206Z,101998.47
2023-01-24T06:44:47.524Z,102002.03
2023-01-24T06:47:50.103Z,102004.78
2023-01-24T06:50:54.457Z,102008.91
2023-01-24T06:53:57.165Z,102010.47
2023-01-24T06:56:59.688Z,102012.53
2023-01-24T07:00:04.618Z,102016.13
2023-01-24T07:03:08.911Z,102021.59
2023-01-24T07:06:11.628Z,102017.03
2023-01-24T07:09:14.460Z,102025.25
2023-01-24T07:12:17.243Z,102023.41
2023-01-24T07:15:19.835Z,102023.84
2023-01-24T07:18:23.012Z,102023.63
2023-01-24T07:21:25.787Z,102019.75
2023-01-24T07:24:30.605Z,102026.53
2023-01-24T07:27:33.361Z,102014.31
2023-01-24T07:30:35.953Z,102031.50
2023-01-24T07:33:38.474Z,102037.16
2023-01-24T07:36:43.371Z,102028.31
2023-01-24T07:39:45.965Z,102035.22
2023-01-24T07:42:48.524Z,102033.81
2023-01-24T07:45:52.887Z,102029.34
2023-01-24T07:48:55.781Z,102028.47
2023-01-24T07:52:01.899Z,102030.44
2023-01-24T07:55:05.554Z,102030.00
2023-01-24T07:58:08.041Z,102037.91
2023-01-24T08:01:16.263Z,102031.34
2023-01-24T08:04:19.235Z,102034.94
2023-01-24T08:07:22.910Z,102038.38
2023-01-24T08:10:25.789Z,102039.69
2023-01-24T08:13:28.818Z,102043.00
2023-01-24T08:16:31.415Z,102042.94
2023-01-24T08:19:54.851Z,102041.22
2023-01-24T08:22:59.209Z,102035.38
2023-01-24T08:26:03.739Z,102037.81
2023-01-24T08:29:06.216Z,102044.25
2023-01-24T08:32:08.676Z,102041.63
2023-01-24T08:35:11.370Z,102042.06
2023-01-24T08:38:14.245Z,102049.28
2023-01-24T08:41:16.709Z,102047.31
2023-01-24T08:44:19.256Z,102048.91
2023-01-24T08:47:22.380Z,102047.75
2023-01-24T08:50:25.336Z,102053.22
2023-01-24T08:53:29.549Z,102048.84
2023-01-24T08:56:33.802Z,102056.75
2023-01-24T08:59:36.753Z,102055.38
2023-01-24T09:02:39.850Z,102051.13
2023-01-24T09:05:42.850Z,102052.44
2023-01-24T09:08:45.544Z,102063.25
2023-01-24T09:11:49.577Z,102059.59
2023-01-24T09:14:52.407Z,102045.13
2023-01-24T09:17:55.198Z,102055.56
2023-01-24T09:21:02.580Z,102057.41
2023-01-24T09:24:05.415Z,102058.75
2023-01-24T09:27:08.103Z,102057.34
2023-01-24T09:30:11.587Z,102058.22
2023-01-24T09:33:16.654Z,102057.66
2023-01-24T09:36:19.187Z,102057.06
2023-01-24T09:39:23.045Z,102068.88
2023-01-24T09:42:42.590Z,102058.72
2023-01-24T09:46:05.921Z,102052.38
2023-01-24T09:49:09.341Z,102048.88
2023-01-24T09:52:21.069Z,102049.13
2023-01-24T09:55:32.516Z,102056.69
2023-01-24T09:58:41.128Z,102051.13
2023-01-24T10:01:44.056Z,102051.81
2023-01-24T10:04:48.576Z,102045.16
2023-01-24T10:08:14.278Z,102048.28
2023-01-24T10:11:31.249Z,102049.03
2023-01-24T10:15:18.548Z,102037.03
2023-01-24T10:19:04.894Z,102030.78
2023-01-24T10:22:33.150Z,102029.72
2023-01-24T10:26:11.081Z,102021.94
2023-01-24T10:29:21.520Z,102016.16
2023-01-24T10:32:32.608Z,102017.38
2023-01-24T10:35:58.331Z,102014.13
2023-01-24T10:39:00.818Z,102006.41
2023-01-24T10:42:15.612Z,102009.28
2023-01-24T10:45:36.923Z,102005.75
2023-01-24T10:48:54.792Z,102005.84
2023-01-24T10:52:20.147Z,101994.34
2023-01-24T10:55:25.433Z,101991.25
2023-01-24T10:58:39.445Z,101988.47
2023-01-24T11:01:50.644Z,101979.63
2023-01-24T11:05:01.436Z,101976.72
2023-01-24T11:08:05.610Z,101974.75
2023-01-24T11:11:41.161Z,101964.38
2023-01-24T11:14:49.841Z,101960.81
2023-01-24T11:17:58.757Z,101956.09
2023-01-24T11:21:13.796Z,101957.72
2023-01-24T11:24:16.520Z,101954.25
2023-01-24T11:27:21.732Z,101943.03
2023-01-24T11:30:25.631Z,101949.84
2023-01-24T11:33:37.892Z,101948.91
2023-01-24T11:36:56.205Z,101942.03
2023-01-24T11:40:17.421Z,101937.50
2023-01-24T11:43:41.165Z,101936.72
2023-01-24T11:46:57.990Z,101934.31
2023-01-24T11:50:53.886Z,101936.88
2023-01-24T11:54:29.091Z,101928.66
2023-01-24T11:57:43.879Z,101921.44
2023-01-24T12:00:53.868Z,101930.66
2023-01-24T12:04:02.698Z,101926.34
2023-01-24T12:07:46.825Z,101917.22
2023-01-24T12:11:11.941Z,101923.09
2023-01-24T12:14:23.872Z,101922.13
2023-01-24T12:17:37.472Z,101913.22
2023-01-24T12:21:06.500Z,101912.59
2023-01-24T12:24:22.720Z,101928.19
2023-01-24T12:27:27.714Z,101921.81
2023-01-24T12:30:37.903Z,101913.78
2023-01-24T12:34:18.726Z,101914.09
2023-01-24T12:37:56.669Z,101911.00
2023-01-24T12:41:32.584Z,101911.13
2023-01-24T12:44:43.947Z,101908.38
2023-01-24T12:47:55.623Z,101911.06
2023-01-24T12:51:01.431Z,101912.16
2023-01-24T12:54:23.121Z,101914.50
2023-01-24T12:57:38.424Z,101898.34
2023-01-24T13:00:55.168Z,101904.53
2023-01-24T13:04:18.768Z,101907.81
2023-01-24T13:07:50.561Z,101902.28
2023-01-24T13:11:21.548Z,101895.63
2023-01-24T13:14:27.912Z,101902.09
2023-01-24T13:17:45.732Z,101900.50
2023-01-24T13:21:15.554Z,101901.66
2023-01-24T13:24:33.298Z,101901.22
2023-01-24T13:28:00.396Z,101903.28
2023-01-24T13:31:28.541Z,101906.41
2023-01-24T13:34:38.495Z,101900.00
2023-01-24T13:37:41.603Z,101900.75
2023-01-24T13:40:59.634Z,101898.59
2023-01-24T13:44:02.741Z,101902.16
2023-01-24T13:47:14.012Z,101904.47
2023-01-24T13:50:19.464Z,101907.16
2023-01-24T13:54:00.305Z,101903.41
2023-01-24T13:57:30.911Z,101909.31
2023-01-24T14:00:34.792Z,101915.03
2023-01-24T14:03:38.661Z,101907.88
2023-01-24T14:06:44.509Z,101912.94
2023-01-24T14:09:48.157Z,101909.41
2023-01-24T14:12:55.411Z,101914.31
2023-01-24T14:15:58.109Z,101902.91
2023-01-24T14:19:08.549Z,101906.38
2023-01-24T14:22:20.650Z,101909.06
2023-01-24T14:25:48.455Z,101913.03
2023-01-24T14:28:56.456Z,101910.91
2023-01-24T14:32:01.515Z,101910.84
2023-01-24T14:35:21.555Z,101913.00
2023-01-24T14:38:24.126Z,101917.41
2023-01-24T14:41:26.912Z,101920.50
2023-01-24T14:44:36.471Z,101918.00
2023-01-24T14:47:39.809Z,101918.16
2023-01-24T14:50:42.546Z,101918.88
2023-01-24T14:53:50.909Z,101924.72
2023-01-24T14:56:53.594Z,101924.34
2023-01-24T15:00:13.130Z,101923.31
2023-01-24T15:03:19.894Z,101932.03
2023-01-24T15:06:23.271Z,101931.00
2023-01-24T15:09:26.555Z,101932.63
2023-01-24T15:12:36.729Z,101939.56
2023-01-24T15:15:40.367Z,101929.97
2023-01-24T15:18:46.725Z,101940.00
2023-01-24T15:21:51.498Z,101941.78
2023-01-24T15:24:59.196Z,101947.22
2023-01-24T15:28:27.315Z,101945.94
2023-01-24T15:31:31.314Z,101955.03
2023-01-24T15:34:33.939Z,101947.00
2023-01-24T15:37:36.623Z,101944.31
2023-01-24T15:41:02.320Z,101955.06
2023-01-24T15:44:08.238Z,101951.97
2023-01-24T15:47:39.306Z,101954.19
2023-01-24T15:51:12.365Z,101948.31
2023-01-24T15:54:15.557Z,101959.47
2023-01-24T15:57:24.655Z,101950.09
2023-01-24T16:00:27.708Z,101951.00
2023-01-24T16:03:30.847Z,101951.94
2023-01-24T16:06:33.418Z,101958.97
2023-01-24T16:09:36.322Z,101963.09
2023-01-24T16:12:39.801Z,101964.16
2023-01-24T16:15:42.329Z,101969.19
2023-01-24T16:18:45.038Z,101968.38
2023-01-24T16:21:47.887Z,101980.31
2023-01-24T16:24:50.450Z,101981.44
2023-01-24T16:27:53.693Z,101989.94
2023-01-24T16:31:03.262Z,101991.31
2023-01-24T16:34:05.792Z,101987.97
2023-01-24T16:37:09.896Z,101987.75
2023-01-24T16:40:15.862Z,101972.09
2023-01-24T16:43:21.571Z,101995.25
2023-01-24T16:46:24.295Z,101991.69
2023-01-24T16:49:28.453Z,101994.84
2023-01-24T16:52:32.554Z,101997.50
2023-01-24T16:55:38.861Z,101995.63
2023-01-24T16:58:41.447Z,102003.97
2023-01-24T17:01:44.470Z,102002.81
2023-01-24T17:04:49.980Z,102001.56
2023-01-24T17:07:52.665Z,102009.00
2023-01-24T17:11:06.676Z,102016.31
2023-01-24T17:14:09.504Z,102012.50
2023-01-24T17:17:12.144Z,102020.56
2023-01-24T17:20:15.526Z,102022.31
2023-01-24T17:23:17.961Z,102021.75
2023-01-24T17:26:20.670Z,102024.81
2023-01-24T17:29:26.818Z,102026.13
2023-01-24T17:32:31.509Z,102032.78
2023-01-24T17:35:34.154Z,102031.59
2023-01-24T17:38:37.217Z,102032.50
2023-01-24T17:41:40.185Z,102037.63
2023-01-24T17:44:43.105Z,102038.84
2023-01-24T17:47:45.555Z,102047.78
2023-01-24T17:50:49.209Z,102044.84
2023-01-24T17:53:51.919Z,102039.22
2023-01-24T17:56:54.795Z,102043.72
2023-01-24T17:59:57.358Z,102039.91
2023-01-24T18:03:00.248Z,102046.56
2023-01-24T18:06:05.282Z,102050.00
2023-01-24T18:09:08.411Z,102047.81
2023-01-24T18:12:11.136Z,102050.13
2023-01-24T18:15:14.278Z,102059.00
2023-01-24T18:18:17.572Z,102057.19
2023-01-24T18:21:23.530Z,102056.63
2023-01-24T18:24:26.010Z,102056.03
2023-01-24T18:27:29.390Z,102055.09
2023-01-24T18:30:32.051Z,102056.13
2023-01-24T18:33:35.900Z,102058.56
2023-01-24T18:36:39.205Z,102056.53
2023-01-24T18:39:42.012Z,102046.94
2023-01-24T18:42:45.400Z,102059.44
2023-01-24T18:45:48.402Z,102060.91
2023-01-24T18:48:52.227Z,102057.06
2023-01-24T18:51:54.871Z,102060.72
2023-01-24T18:54:57.599Z,102063.16
2023-01-24T18:58:00.500Z,102060.34
2023-01-24T19:01:20.158Z,102058.94
2023-01-24T19:04:23.478Z,102057.94
2023-01-24T19:07:26.444Z,102057.59
2023-01-24T19:10:31.102Z,102056.38
2023-01-24T19:13:34.917Z,102048.50
2023-01-24T19:16:40.932Z,102057.41
2023-01-24T19:19:44.164Z,102066.34
2023-01-24T19:22:47.421Z,102059.94
2023-01-24T19:25:50.148Z,102071.03
2023-01-24T19:28:55.852Z,102065.63
2023-01-24T19:31:58.926Z,102074.94
2023-01-24T19:35:01.910Z,102069.88
2023-01-24T19:38:04.719Z,102069.97
2023-01-24T19:41:10.584Z,102075.44
2023-01-24T19:44:22.324Z,102065.72
2023-01-24T19:47:25.719Z,102066.53
2023-01-24T19:50:31.038Z,102075.22
2023-01-24T19:53:34.785Z,102075.22
2023-01-24T19:56:37.853Z,102073.63
2023-01-24T19:59:41.379Z,102078.28
2023-01-24T20:02:47.237Z,102087.16
2023-01-24T20:05:50.294Z,102080.75
2023-01-24T20:08:57.001Z,102085.41
2023-01-24T20:11:59.870Z,102087.41
2023-01-24T20:15:02.661Z,102079.34
2023-01-24T20:18:05.810Z,102085.66
2023-01-24T20:21:12.997Z,102082.59
2023-01-24T20:24:16.277Z,102079.81
2023-01-24T20:27:18.899Z,102080.81
2023-01-24T20:30:22.724Z,102076.56
2023-01-24T20:33:25.927Z,102078.34
2023-01-24T20:36:28.586Z,102078.75
2023-01-24T20:39:31.370Z,102073.69
2023-01-24T20:42:35.665Z,102077.19
2023-01-24T20:45:38.818Z,102073.69
2023-01-24T20:48:41.661Z,102065.00
2023-01-24T20:51:44.496Z,102073.09
2023-01-24T20:54:47.663Z,102072.91
2023-01-24T20:57:50.263Z,102077.53
2023-01-24T21:00:54.244Z,102074.56
2023-01-24T21:04:09.104Z,102069.72
2023-01-24T21:07:12.062Z,102076.97
2023-01-24T21:10:15.889Z,102076.78
2023-01-24T21:13:19.629Z,102075.97
2023-01-24T21:16:23.540Z,102083.88
2023-01-24T21:19:27.264Z,102078.41
2023-01-24T21:22:29.900Z,102077.19
2023-01-24T21:25:35.001Z,102083.09
2023-01-24T21:28:38.312Z,102079.88
2023-01-24T21:31:41.390Z,102082.91
2023-01-24T21:34:43.826Z,102091.19
2023-01-24T21:37:46.921Z,102086.72
2023-01-24T21:41:09.902Z,102075.03
2023-01-24T21:44:12.480Z,102092.00
2023-01-24T21:47:17.423Z,102081.47
2023-01-24T21:50:20.448Z,102078.66
2023-01-24T21:53:43.381Z,102083.31
2023-01-24T21:57:28.172Z,102082.91
2023-01-24T22:00:32.582Z,102078.44
2023-01-24T22:03:35.334Z,102078.84
2023-01-24T22:06:38.011Z,102086.97
2023-01-24T22:09:41.415Z,102083.53
2023-01-24T22:12:44.006Z,102086.97
2023-01-24T22:15:46.686Z,102079.13
2023-01-24T22:18:49.820Z,102086.78
2023-01-24T22:21:52.735Z,102095.69
2023-01-24T22:25:27.073Z,102094.06
2023-01-24T22:28:32.974Z,102093.47
2023-01-24T22:31:35.733Z,102092.44
2023-01-24T22:34:39.169Z,102085.97
2023-01-24T22:37:43.861Z,102081.75
2023-01-24T22:40:47.029Z,102090.44
2023-01-24T22:43:49.989Z,102084.78
2023-01-24T22:46:52.745Z,102079.94
2023-01-24T22:49:55.368Z,102077.72
2023-01-24T22:52:58.157Z,102079.53
2023-01-24T22:56:03.617Z,102075.28
2023-01-24T22:59:06.669Z,102080.13
2023-01-24T23:02:09.668Z,102074.88
2023-01-24T23:05:13.057Z,102076.13
2023-01-24T23:08:16.899Z,102071.47
2023-01-24T23:11:21.127Z,102071.88
2023-01-24T23:14:42.331Z,102066.81
2023-01-24T23:17:47.839Z,102061.19
2023-01-24T23:21:12.969Z,102057.72
2023-01-24T23:24:15.947Z,102058.53
2023-01-24T23:27:21.069Z,102055.31
2023-01-24T23:30:37.862Z,102059.56
2023-01-24T23:33:44.303Z,102061.78
2023-01-24T23:36:49.825Z,102051.06
2023-01-24T23:39:52.789Z,102059.38
2023-01-24T23:42:55.784Z,102056.53
2023-01-24T23:45:58.360Z,102049.88
2023-01-24T23:49:01.167Z,102047.66
2023-01-24T23:52:04.979Z,102052.69
2023-01-24T23:55:08.634Z,102051.47
2023-01-24T23:58:11.451Z,102052.50
